Time;durP1;ratioP1;P1;durP2;ratioP2;P2;SDS_P1;SDS_P2;PMS_P1;PMS_P2;Temp;Humidity;BMP_temperature;BMP_pressure;BME280_temperature;BME280_humidity;BME280_pressure;Samples;Min_cycle;Max_cycle;Signal;HPM_P1;HPM_P2
2022/06/17 00:00:58;;;;;;;8.15;4.40;;;486.90;2380.80;;;;;;5050596;28;20033;-57
2022/06/17 00:03:26;;;;;;;5.70;3.90;;;486.80;2380.80;;;;;;5050566;28;20021;-56
2022/06/17 00:05:56;;;;;;;6.90;4.85;;;486.70;2380.80;;;;;;5050332;28;20032;-57
2022/06/17 00:08:32;;;;;;;10.25;5.03;;;486.60;2380.80;;;;;;5050229;28;20037;-58
2022/06/17 00:10:58;;;;;;;6.47;4.60;;;486.50;2380.80;;;;;;5050402;28;20033;-57
2022/06/17 00:13:24;;;;;;;8.43;4.68;;;486.40;2380.80;;;;;;5050567;28;20407;-57
2022/06/17 00:15:51;;;;;;;5.47;3.65;;;486.40;2380.80;;;;;;5050210;28;20059;-57
2022/06/17 00:18:18;;;;;;;6.53;4.40;;;486.40;2380.80;;;;;;5050303;28;20028;-57
2022/06/17 00:20:46;;;;;;;6.60;4.32;;;486.50;2380.80;;;;;;5050484;28;20063;-57
2022/06/17 00:23:14;;;;;;;6.10;4.10;;;486.50;2380.80;;;;;;5050235;28;20029;-57
2022/06/17 00:25:41;;;;;;;6.10;3.85;;;486.40;2380.80;;;;;;5050267;28;20032;-57
2022/06/17 00:28:13;;;;;;;5.32;4.00;;;486.40;2380.80;;;;;;5050157;28;20037;-57
2022/06/17 00:30:40;;;;;;;5.40;3.97;;;486.40;2380.80;;;;;;5050088;28;20032;-57
2022/06/17 00:33:06;;;;;;;6.72;3.95;;;486.50;2380.80;;;;;;5050368;28;20036;-57
2022/06/17 00:36:03;;;;;;;5.00;3.60;;;486.50;2380.80;;;;;;5048255;28;20112;-57
2022/06/17 00:38:32;;;;;;;6.13;3.85;;;486.60;2380.80;;;;;;5027737;28;20025;-57
2022/06/17 00:41:34;;;;;;;6.35;3.45;;;486.70;2380.80;;;;;;5027891;28;20072;-58
2022/06/17 00:44:07;;;;;;;4.82;3.58;;;486.70;2380.80;;;;;;4988554;28;20493;-57
2022/06/17 00:46:36;;;;;;;4.80;3.90;;;486.70;2380.80;;;;;;4988560;28;20046;-57
2022/06/17 00:49:09;;;;;;;6.57;3.72;;;486.80;2380.80;;;;;;4988318;28;20053;-56
2022/06/17 00:51:58;;;;;;;5.28;3.45;;;486.80;2380.80;;;;;;4991725;28;20065;-58
2022/06/17 00:54:28;;;;;;;5.10;3.95;;;486.80;2380.80;;;;;;4992170;28;20034;-58
2022/06/17 00:56:54;;;;;;;5.93;4.50;;;486.90;2380.80;;;;;;4992603;28;20113;-57
2022/06/17 00:59:20;;;;;;;4.35;3.28;;;486.90;2380.80;;;;;;4992178;28;20146;-57
2022/06/17 01:02:02;;;;;;;10.63;3.35;;;487.00;2380.80;;;;;;4992554;28;20034;-57
2022/06/17 01:04:34;;;;;;;4.27;3.13;;;487.10;2380.80;;;;;;4992354;28;20042;-57
2022/06/17 01:07:06;;;;;;;4.80;3.33;;;487.10;2380.80;;;;;;4992235;28;20035;-56
2022/06/17 01:12:24;;;;;;;4.65;3.35;;;487.10;2380.80;;;;;;4992148;28;20396;-57
2022/06/17 01:14:50;;;;;;;8.10;3.25;;;487.10;2380.80;;;;;;5011674;28;20164;-57
2022/06/17 01:17:18;;;;;;;8.13;4.15;;;487.10;2380.80;;;;;;5031673;28;20021;-56
2022/06/17 01:19:46;;;;;;;5.47;3.17;;;487.10;2380.80;;;;;;5044012;28;20037;-56
2022/06/17 01:22:20;;;;;;;4.95;3.65;;;487.00;2380.80;;;;;;5053395;28;20029;-55
2022/06/17 01:24:49;;;;;;;5.13;3.53;;;487.00;2380.80;;;;;;5053564;28;20096;-56
2022/06/17 01:27:21;;;;;;;4.75;3.30;;;486.90;2380.80;;;;;;5053347;28;20487;-57
2022/06/17 01:29:48;;;;;;;6.63;3.88;;;486.80;2380.80;;;;;;5053388;28;20045;-57
2022/06/17 01:32:16;;;;;;;5.75;4.05;;;486.70;2380.80;;;;;;5053839;28;20021;-56
2022/06/17 01:34:42;;;;;;;5.00;3.95;;;486.70;2380.80;;;;;;5053512;28;20126;-56
2022/06/17 01:37:10;;;;;;;5.10;3.65;;;486.60;2380.80;;;;;;5053185;28;20050;-57
2022/06/17 01:39:36;;;;;;;5.07;3.72;;;486.60;2380.80;;;;;;5053279;28;20499;-57
2022/06/17 01:42:02;;;;;;;4.53;3.63;;;486.50;2380.80;;;;;;5052810;28;20064;-57
2022/06/17 01:44:35;;;;;;;4.60;3.33;;;486.50;2380.80;;;;;;5053092;28;20475;-57
2022/06/17 01:47:05;;;;;;;6.32;3.45;;;486.60;2380.80;;;;;;5052949;28;20033;-57
2022/06/17 01:49:37;;;;;;;4.45;3.10;;;486.60;2380.80;;;;;;5052853;28;20369;-57
2022/06/17 01:52:11;;;;;;;6.50;3.88;;;486.70;2380.80;;;;;;5052915;28;20025;-56
2022/06/17 01:54:59;;;;;;;4.25;3.70;;;486.80;2380.80;;;;;;5053049;28;20025;-56
2022/06/17 01:57:32;;;;;;;5.65;3.97;;;486.80;2380.80;;;;;;5053083;28;20052;-57
2022/06/17 02:00:06;;;;;;;13.93;6.20;;;486.80;2380.80;;;;;;5052889;28;20416;-56
2022/06/17 02:02:32;;;;;;;5.38;3.13;;;487.00;2380.80;;;;;;5052056;28;20028;-56
2022/06/17 02:05:04;;;;;;;5.20;3.17;;;487.10;2380.80;;;;;;5052580;28;20546;-57
2022/06/17 02:07:54;;;;;;;5.07;3.65;;;487.20;2380.80;;;;;;5052305;28;20029;-56
2022/06/17 02:10:26;;;;;;;4.47;3.28;;;487.20;2380.80;;;;;;5052452;28;20029;-57
2022/06/17 02:12:52;;;;;;;7.22;3.63;;;487.10;2380.80;;;;;;5052440;28;20467;-56
2022/06/17 02:15:18;;;;;;;6.28;4.03;;;487.00;2380.80;;;;;;5052513;28;20029;-56
2022/06/17 02:17:47;;;;;;;7.63;4.40;;;486.90;2380.80;;;;;;5052512;28;20021;-56
2022/06/17 02:20:15;;;;;;;5.90;4.28;;;486.80;2380.80;;;;;;5052450;28;20029;-58
2022/06/17 02:22:42;;;;;;;4.45;3.60;;;486.80;2380.80;;;;;;5052204;28;20051;-57
2022/06/17 02:25:15;;;;;;;5.18;3.78;;;486.80;2380.80;;;;;;5052416;28;20075;-58
2022/06/17 02:27:43;;;;;;;;;;;486.80;2380.80;;;;;;5052436;28;20104;-57
2022/06/17 02:30:10;;;;;;;6.57;4.15;;;486.90;2380.80;;;;;;5052346;28;19919;-56
2022/06/17 02:32:38;;;;;;;5.57;4.90;;;486.90;2380.80;;;;;;5052310;28;20036;-56
2022/06/17 02:35:37;;;;;;;8.20;3.70;;;486.90;2380.80;;;;;;5052160;28;20507;-57
2022/06/17 02:38:04;;;;;;;6.88;3.60;;;486.90;2380.80;;;;;;5052336;28;20029;-56
2022/06/17 02:40:40;;;;;;;4.38;3.80;;;487.00;2380.80;;;;;;5052040;28;20052;-56
2022/06/17 02:43:14;;;;;;;5.35;3.80;;;487.10;2380.80;;;;;;5052134;28;20108;-55
2022/06/17 02:45:44;;;;;;;6.53;4.05;;;487.10;2380.80;;;;;;5052043;28;20027;-56
2022/06/17 02:48:27;;;;;;;5.78;3.58;;;487.10;2380.80;;;;;;5051838;28;20027;-56
2022/06/17 02:50:56;;;;;;;6.60;4.00;;;487.10;2380.80;;;;;;5052072;28;20063;-56
2022/06/17 02:53:31;;;;;;;6.43;4.15;;;487.10;2380.80;;;;;;5051761;28;20017;-56
2022/06/17 02:55:57;;;;;;;6.38;3.10;;;487.10;2380.80;;;;;;5051899;28;20479;-56
2022/06/17 02:58:49;;;;;;;4.82;3.17;;;487.30;2380.80;;;;;;5051585;28;20102;-56
2022/06/17 03:01:25;;;;;;;8.10;3.85;;;512.10;2380.80;;;;;;5043357;28;20040;-56
2022/06/17 03:03:53;;;;;;;5.10;3.72;;;512.30;2380.80;;;;;;5051474;28;20031;-57
2022/06/17 03:06:31;;;;;;;5.68;3.75;;;512.50;2380.80;;;;;;5051478;28;20063;-56
2022/06/17 03:08:58;;;;;;;6.53;4.65;;;512.60;2380.80;;;;;;5051570;28;20040;-58
2022/06/17 03:11:24;;;;;;;8.02;4.55;;;512.80;2380.80;;;;;;5051757;28;20110;-56
2022/06/17 03:13:53;;;;;;;9.48;3.97;;;512.80;2380.80;;;;;;5048747;28;20072;-56
2022/06/17 03:16:22;;;;;;;8.20;4.90;;;512.90;2380.80;;;;;;5051346;28;20412;-55
2022/06/17 03:18:49;;;;;;;9.48;4.90;;;512.90;2380.80;;;;;;5051311;28;20032;-56
2022/06/17 03:21:20;;;;;;;6.78;4.70;;;512.90;2380.80;;;;;;5051640;28;20028;-56
2022/06/17 03:24:22;;;;;;;8.05;4.95;;;537.60;2406.40;;;;;;5051283;28;20036;-56
2022/06/17 03:26:58;;;;;;;7.38;5.35;;;537.60;2406.40;;;;;;5051070;28;20033;-57
2022/06/17 03:29:26;;;;;;;7.30;4.75;;;537.70;2406.40;;;;;;5051151;28;20041;-57
2022/06/17 03:32:05;;;;;;;5.47;4.85;;;537.80;2406.40;;;;;;5050827;28;20365;-58
2022/06/17 03:34:42;;;;;;;6.03;4.57;;;537.80;2406.40;;;;;;5051095;28;20089;-56
2022/06/17 03:37:08;;;;;;;8.05;4.47;;;537.80;2406.40;;;;;;5050861;28;20048;-57
2022/06/17 03:39:40;;;;;;;7.90;4.47;;;537.70;2406.40;;;;;;5050942;28;20031;-56
2022/06/17 03:42:19;;;;;;;6.27;4.97;;;537.70;2406.40;;;;;;5051006;28;20138;-56
2022/06/17 03:45:14;;;;;;;7.22;4.93;;;537.80;2406.40;;;;;;5051028;28;20104;-56
2022/06/17 03:47:53;;;;;;;7.70;4.30;;;537.80;2406.40;;;;;;5050813;28;20017;-56
2022/06/17 03:50:26;;;;;;;8.38;4.80;;;537.90;2406.40;;;;;;5050689;28;20075;-57
2022/06/17 03:53:05;;;;;;;6.25;4.93;;;538.00;2406.40;;;;;;5050600;28;20021;-57
2022/06/17 03:55:32;;;;;;;7.10;4.80;;;538.10;2406.40;;;;;;5050594;28;20120;-57
2022/06/17 03:58:01;;;;;;;6.43;5.45;;;538.10;2406.40;;;;;;5050448;28;20033;-56
2022/06/17 04:00:42;;;;;;;7.20;5.43;;;538.20;2406.40;;;;;;5050690;28;20017;-56
2022/06/17 04:03:16;;;;;;;6.18;4.45;;;538.40;2406.40;;;;;;5050767;28;20033;-57
2022/06/17 04:05:46;;;;;;;5.88;5.00;;;538.50;2406.40;;;;;;5050684;28;20391;-56
2022/06/17 04:08:12;;;;;;;10.23;5.55;;;563.20;2432.00;;;;;;5050404;28;20457;-56
2022/06/17 04:10:39;;;;;;;8.65;5.28;;;563.20;2432.00;;;;;;5050611;28;20040;-58
2022/06/17 04:13:06;;;;;;;10.57;5.65;;;563.20;2432.00;;;;;;5050470;28;20021;-58
2022/06/17 04:15:34;;;;;;;10.05;6.15;;;563.50;2432.00;;;;;;5050048;28;20031;-58
2022/06/17 04:18:00;;;;;;;6.22;4.93;;;563.50;2432.00;;;;;;5050289;28;20017;-58
2022/06/17 04:20:50;;;;;;;7.95;5.03;;;563.50;2432.00;;;;;;5050461;28;20032;-57
2022/06/17 04:23:26;;;;;;;5.82;4.63;;;563.50;2432.00;;;;;;5050247;28;20025;-57
2022/06/17 04:26:12;;;;;;;8.52;5.47;;;563.30;2432.00;;;;;;5049676;28;20021;-58
2022/06/17 04:29:03;;;;;;;6.15;4.35;;;563.30;2432.00;;;;;;5050019;28;20502;-56
2022/06/17 04:31:30;;;;;;;6.72;4.78;;;563.20;2432.00;;;;;;5050063;28;20437;-57
2022/06/17 04:34:14;;;;;;;7.15;5.47;;;538.50;2406.40;;;;;;5050135;28;20029;-56
2022/06/17 04:36:46;;;;;;;10.80;5.70;;;538.40;2406.40;;;;;;5050053;28;20490;-57
2022/06/17 04:39:21;;;;;;;7.63;5.97;;;538.30;2406.40;;;;;;5050097;28;20028;-59
2022/06/17 04:41:52;;;;;;;9.23;6.43;;;538.20;2406.40;;;;;;5050239;28;20105;-57
2022/06/17 04:44:18;;;;;;;9.43;6.53;;;538.20;2406.40;;;;;;5050257;28;20028;-58
2022/06/17 04:46:52;;;;;;;11.73;6.72;;;538.20;2406.40;;;;;;5050196;28;20021;-58
2022/06/17 04:49:22;;;;;;;7.72;6.30;;;538.20;2406.40;;;;;;5049918;28;20045;-59
2022/06/17 04:51:49;;;;;;;10.50;7.30;;;538.00;2406.40;;;;;;5049782;28;20017;-58
2022/06/17 04:54:15;;;;;;;9.77;6.40;;;537.90;2406.40;;;;;;5049810;28;20025;-57
2022/06/17 04:56:45;;;;;;;6.93;6.10;;;537.70;2406.40;;;;;;5049767;28;20033;-59
2022/06/17 04:59:23;;;;;;;8.27;6.05;;;537.60;2406.40;;;;;;5059276;28;20418;-57
2022/06/17 05:01:51;;;;;;;7.88;6.50;;;512.90;2380.80;;;;;;5066734;28;20513;-58
2022/06/17 05:04:17;;;;;;;6.82;6.07;;;512.90;2380.80;;;;;;5068389;28;20047;-58
2022/06/17 05:06:43;;;;;;;11.32;8.05;;;512.90;2380.80;;;;;;5068581;28;20017;-59
2022/06/17 05:09:22;;;;;;;8.07;6.65;;;512.90;2380.80;;;;;;5068222;28;20402;-56
2022/06/17 05:11:54;;;;;;;11.95;6.22;;;512.90;2380.80;;;;;;5066358;28;20021;-58
2022/06/17 05:14:34;;;;;;;9.07;6.50;;;512.50;2380.80;;;;;;5068065;28;20039;-57
2022/06/17 05:17:00;;;;;;;7.93;6.05;;;512.60;2380.80;;;;;;5068055;28;20068;-56
2022/06/17 05:19:26;;;;;;;8.07;7.22;;;512.60;2380.80;;;;;;5069620;28;20028;-58
2022/06/17 05:21:52;;;;;;;9.63;6.93;;;512.80;2380.80;;;;;;5069445;28;20021;-58
2022/06/17 05:24:18;;;;;;;8.13;7.10;;;512.70;2380.80;;;;;;5069301;28;20032;-58
2022/06/17 05:26:44;;;;;;;10.98;7.25;;;512.70;2380.80;;;;;;5069510;28;20035;-58
2022/06/17 05:29:10;;;;;;;10.25;7.25;;;512.80;2380.80;;;;;;5069254;28;20066;-58
2022/06/17 05:31:36;;;;;;;8.30;7.13;;;512.90;2380.80;;;;;;5069676;28;20063;-56
2022/06/17 05:34:03;;;;;;;13.48;6.70;;;537.60;2406.40;;;;;;5069276;28;20032;-61
2022/06/17 05:36:29;;;;;;;9.73;7.10;;;537.80;2406.40;;;;;;5069580;28;20103;-62
2022/06/17 05:38:55;;;;;;;8.48;7.55;;;538.00;2406.40;;;;;;5072857;28;20424;-62
2022/06/17 05:41:24;;;;;;;9.20;8.20;;;538.30;2406.40;;;;;;5073065;28;20055;-61
2022/06/17 05:43:51;;;;;;;10.20;6.93;;;563.30;2432.00;;;;;;5073063;28;20514;-62
2022/06/17 05:46:17;;;;;;;14.30;7.78;;;563.60;2432.00;;;;;;5072937;28;20025;-63
2022/06/17 05:48:43;;;;;;;8.77;7.40;;;564.10;2432.00;;;;;;5072934;28;20536;-62
2022/06/17 05:51:10;;;;;;;9.43;7.18;;;589.30;2432.00;;;;;;5072878;28;20025;-63
2022/06/17 05:53:36;;;;;;;8.57;7.53;;;666.30;2432.00;;;;;;5073130;28;20060;-62
2022/06/17 05:56:02;;;;;;;10.13;7.50;;;716.80;2432.00;;;;;;5073010;28;20021;-63
2022/06/17 05:58:28;;;;;;;8.38;6.70;;;717.50;2176.00;;;;;;5072530;28;20059;-62
2022/06/17 06:00:54;;;;;;;8.02;7.18;;;793.70;1843.20;;;;;;5073089;28;20029;-62
2022/06/17 06:03:22;;;;;;;6.82;6.13;;;845.10;1689.60;;;;;;5072559;28;20498;-62
2022/06/17 06:05:48;;;;;;;10.25;7.25;;;871.10;1484.80;;;;;;5072885;28;20021;-63
2022/06/17 06:08:14;;;;;;;6.90;6.20;;;794.50;1664.00;;;;;;5072791;28;20386;-63
2022/06/17 06:10:40;;;;;;;8.98;7.63;;;793.70;1715.20;;;;;;5072598;28;20037;-63
2022/06/17 06:13:06;;;;;;;8.10;6.82;;;794.30;1664.00;;;;;;5072691;28;20020;-62
2022/06/17 06:15:38;;;;;;;8.48;7.07;;;819.30;1664.00;;;;;;5072334;28;20055;-62
2022/06/17 06:18:04;;;;;;;7.63;6.82;;;793.70;1740.80;;;;;;5072683;28;20102;-63
2022/06/17 06:20:30;;;;;;;8.85;8.00;;;768.90;1740.80;;;;;;5072368;28;20104;-62
2022/06/17 06:22:56;;;;;;;9.88;8.90;;;794.40;1715.20;;;;;;5054677;28;20442;-62
2022/06/17 06:25:23;;;;;;;10.18;9.27;;;871.20;1510.40;;;;;;5072241;28;20048;-62
2022/06/17 06:27:49;;;;;;;10.00;9.20;;;871.30;1484.80;;;;;;5071944;28;20044;-65
2022/06/17 06:30:35;;;;;;;11.13;8.73;;;947.20;1382.40;;;;;;5072492;28;20032;-63
2022/06/17 06:33:01;;;;;;;8.90;8.10;;;948.10;1356.80;;;;;;5071792;28;20039;-64
2022/06/17 06:35:36;;;;;;;9.95;9.05;;;947.40;1356.80;;;;;;5072274;28;20493;-64
2022/06/17 06:38:03;;;;;;;8.80;8.05;;;973.10;1305.60;;;;;;5071959;28;20029;-64
2022/06/17 06:40:30;;;;;;;10.10;9.07;;;998.60;1280.00;;;;;;5072043;28;20139;-62
2022/06/17 06:42:56;;;;;;;9.23;8.32;;;998.50;1280.00;;;;;;5072556;28;20038;-63
2022/06/17 06:45:31;;;;;;;10.18;9.38;;;1024.20;1228.80;;;;;;5072124;28;20024;-62
2022/06/17 06:48:00;;;;;;;10.57;9.43;;;1050.10;1177.60;;;;;;5071981;28;20437;-62
2022/06/17 06:50:28;;;;;;;10.38;9.40;;;1075.50;1152.00;;;;;;5072200;28;20027;-64
2022/06/17 06:52:54;;;;;;;10.02;9.13;;;998.80;1228.80;;;;;;5072204;28;20054;-64
2022/06/17 06:55:20;;;;;;;8.73;7.72;;;1049.80;1177.60;;;;;;5071950;28;20029;-63
2022/06/17 06:57:58;;;;;;;16.77;10.98;;;998.90;1203.20;;;;;;5071721;28;20031;-64
2022/06/17 07:00:35;;;;;;;11.95;10.85;;;1024.70;1177.60;;;;;;5071969;28;20055;-64
2022/06/17 07:03:01;;;;;;;10.05;9.25;;;1075.70;1100.80;;;;;;5071586;28;20035;-64
2022/06/17 07:05:27;;;;;;;10.70;9.95;;;1100.80;1100.80;;;;;;5071712;28;20020;-63
2022/06/17 07:07:54;;;;;;;11.32;10.27;;;1126.50;1049.60;;;;;;5071419;28;20055;-63
2022/06/17 07:10:24;;;;;;;10.77;9.98;;;1127.30;1024.00;;;;;;5071256;28;20067;-63
2022/06/17 07:12:50;;;;;;;11.15;10.07;;;1152.10;1024.00;;;;;;5071439;28;20097;-64
2022/06/17 07:15:17;;;;;;;10.40;9.63;;;1152.70;998.40;;;;;;5071569;28;20463;-63
2022/06/17 07:17:59;;;;;;;11.02;10.07;;;1152.00;1024.00;;;;;;5071313;28;20048;-63
2022/06/17 07:20:26;;;;;;;10.75;9.85;;;1152.40;1024.00;;;;;;5071694;28;20028;-63
2022/06/17 07:22:52;;;;;;;12.48;11.23;;;1177.60;998.40;;;;;;5070994;28;20463;-63
2022/06/17 07:25:19;;;;;;;11.82;10.52;;;1178.00;947.20;;;;;;5071191;28;20121;-63
2022/06/17 07:27:45;;;;;;;11.77;10.98;;;1178.10;947.20;;;;;;5071028;28;20028;-63
2022/06/17 07:30:16;;;;;;;11.90;10.80;;;1178.50;896.00;;;;;;5071047;28;20048;-64
2022/06/17 07:32:42;;;;;;;10.85;10.05;;;1178.20;921.60;;;;;;5070829;28;20375;-64
2022/06/17 07:35:09;;;;;;;11.20;10.27;;;1178.00;921.60;;;;;;5070840;28;20021;-63
2022/06/17 07:40:18;;;;;;;10.02;9.13;;;1178.10;921.60;;;;;;5070971;28;20035;-64
2022/06/17 07:42:44;;;;;;;12.40;10.27;;;1152.70;947.20;;;;;;5071195;28;20024;-64
2022/06/17 07:45:13;;;;;;;12.30;11.15;;;1126.70;1024.00;;;;;;5070843;28;20031;-63
2022/06/17 07:47:42;;;;;;;9.68;8.88;;;1152.40;972.80;;;;;;5070752;28;20032;-64
2022/06/17 07:50:13;;;;;;;9.40;8.55;;;1101.20;998.40;;;;;;5070636;28;20032;-64
2022/06/17 07:52:39;;;;;;;10.13;9.13;;;1024.90;1100.80;;;;;;5070510;28;20399;-65
2022/06/17 07:55:05;;;;;;;9.35;8.50;;;973.50;1152.00;;;;;;5070931;28;20052;-63
2022/06/17 07:57:31;;;;;;;8.77;7.97;;;947.20;1203.20;;;;;;5070338;28;20379;-63
2022/06/17 07:59:57;;;;;;;8.43;7.45;;;921.60;1254.40;;;;;;5069806;28;20049;-63
2022/06/17 08:02:23;;;;;;;9.32;8.43;;;896.30;1254.40;;;;;;5070128;28;20099;-63
2022/06/17 08:04:49;;;;;;;8.10;7.30;;;921.80;1280.00;;;;;;5070306;28;20036;-63
2022/06/17 08:07:15;;;;;;;9.93;8.93;;;947.20;1203.20;;;;;;5070542;28;20029;-64
2022/06/17 08:09:41;;;;;;;10.27;9.25;;;896.50;1280.00;;;;;;5070275;28;20063;-62
2022/06/17 08:12:11;;;;;;;10.02;8.05;;;871.10;1331.20;;;;;;5070453;28;20028;-63
2022/06/17 08:14:43;;;;;;;8.70;7.88;;;870.50;1356.80;;;;;;5070403;28;20043;-63
2022/06/17 08:17:13;;;;;;;10.07;9.17;;;870.40;1356.80;;;;;;5070072;28;20559;-65
2022/06/17 08:19:40;;;;;;;9.82;8.07;;;870.40;1382.40;;;;;;5070250;28;20119;-64
2022/06/17 08:22:06;;;;;;;12.93;9.00;;;845.70;1408.00;;;;;;5070198;28;20028;-63
2022/06/17 08:24:31;;;;;;;9.45;8.50;;;845.70;1408.00;;;;;;5069978;28;20029;-63
2022/06/17 08:26:57;;;;;;;10.73;9.60;;;845.40;1433.60;;;;;;5070119;28;20020;-63
2022/06/17 08:29:26;;;;;;;9.75;8.50;;;844.90;1459.20;;;;;;5069805;28;20072;-64
2022/06/17 08:31:52;;;;;;;8.60;7.80;;;844.90;1459.20;;;;;;5069867;28;20019;-63
2022/06/17 08:34:18;;;;;;;10.98;8.32;;;819.70;1433.60;;;;;;5070062;28;20025;-63
2022/06/17 08:36:44;;;;;;;8.93;8.13;;;819.50;1459.20;;;;;;5070142;28;20025;-63
2022/06/17 08:39:12;;;;;;;9.25;8.35;;;819.30;1484.80;;;;;;5069907;28;20028;-63
2022/06/17 08:42:00;;;;;;;8.75;7.72;;;819.60;1484.80;;;;;;5070062;28;20086;-63
2022/06/17 08:44:29;;;;;;;9.20;8.30;;;819.80;1459.20;;;;;;5069958;28;20036;-63
2022/06/17 08:47:22;;;;;;;9.00;8.15;;;820.00;1484.80;;;;;;5070129;28;20109;-63
2022/06/17 08:50:09;;;;;;;10.90;7.85;;;820.10;1459.20;;;;;;5069905;28;20032;-63
2022/06/17 08:52:56;;;;;;;9.05;8.25;;;819.60;1484.80;;;;;;5069771;28;20028;-63
2022/06/17 08:55:39;;;;;;;14.07;10.02;;;819.50;1510.40;;;;;;5069647;28;20079;-63
2022/06/17 08:58:19;;;;;;;10.07;9.10;;;819.60;1510.40;;;;;;5069564;28;20028;-62
2022/06/17 09:00:56;;;;;;;10.13;9.13;;;819.30;1536.00;;;;;;5069872;28;20471;-64
2022/06/17 09:03:24;;;;;;;10.15;9.10;;;794.20;1536.00;;;;;;5069472;28;20032;-64
2022/06/17 09:06:38;;;;;;;13.20;9.18;;;794.10;1561.60;;;;;;5069754;28;20348;-64
2022/06/17 09:09:22;;;;;;;9.98;8.90;;;794.10;1536.00;;;;;;5069632;28;20036;-63
2022/06/17 09:12:15;;;;;;;11.43;10.30;;;768.70;1536.00;;;;;;5069708;28;20348;-64
2022/06/17 09:15:04;;;;;;;11.02;9.88;;;768.60;1587.20;;;;;;5073687;28;20032;-63
2022/06/17 09:18:00;;;;;;;10.15;9.25;;;768.50;1612.80;;;;;;5071753;28;20120;-64
2022/06/17 09:20:38;;;;;;;10.30;9.40;;;768.10;1664.00;;;;;;5073509;28;20082;-63
2022/06/17 09:23:05;;;;;;;11.52;9.90;;;768.40;1689.60;;;;;;5073412;28;20028;-63
2022/06/17 09:25:45;;;;;;;10.90;9.18;;;768.60;1664.00;;;;;;5073128;28;20029;-64
2022/06/17 09:28:35;;;;;;;15.18;10.85;;;768.60;1638.40;;;;;;5073513;28;20025;-64
2022/06/17 09:31:13;;;;;;;9.75;8.95;;;768.40;1664.00;;;;;;5073306;28;20364;-64
2022/06/17 09:34:20;;;;;;;9.57;8.02;;;768.50;1638.40;;;;;;5073115;28;20470;-64
2022/06/17 09:37:11;;;;;;;11.05;7.97;;;743.20;1715.20;;;;;;4972329;28;20556;-63
2022/06/17 09:39:53;;;;;;;8.70;7.90;;;743.10;1715.20;;;;;;4972376;28;20363;-63
2022/06/17 09:42:39;;;;;;;9.40;7.93;;;742.90;1715.20;;;;;;4972091;28;20027;-63
2022/06/17 09:45:14;;;;;;;9.85;8.57;;;743.10;1715.20;;;;;;4972099;28;20149;-64
2022/06/17 09:48:06;;;;;;;9.35;7.72;;;742.70;1740.80;;;;;;4972059;28;20582;-63
2022/06/17 09:50:58;;;;;;;11.57;6.72;;;743.20;1715.20;;;;;;4971588;28;20050;-63
2022/06/17 09:53:32;;;;;;;7.88;6.60;;;768.40;1638.40;;;;;;4972090;28;20038;-63
2022/06/17 09:56:01;;;;;;;8.75;6.80;;;768.60;1638.40;;;;;;4972071;28;20067;-63
2022/06/17 09:58:54;;;;;;;8.07;5.88;;;743.10;1638.40;;;;;;4971752;28;20062;-63
2022/06/17 10:01:20;;;;;;;7.07;5.50;;;743.10;1612.80;;;;;;4971740;28;20527;-64
2022/06/17 10:03:46;;;;;;;6.78;5.80;;;742.60;1638.40;;;;;;4955618;28;20042;-63
2022/06/17 10:06:50;;;;;;;7.82;6.90;;;742.80;1638.40;;;;;;4971717;28;20042;-63
2022/06/17 10:09:26;;;;;;;7.05;6.35;;;743.00;1612.80;;;;;;4971163;28;20043;-63
2022/06/17 10:12:12;;;;;;;8.15;5.72;;;742.90;1638.40;;;;;;5072377;28;20060;-63
2022/06/17 10:14:46;;;;;;;6.15;5.53;;;743.20;1638.40;;;;;;5072459;28;20024;-63
2022/06/17 10:21:15;;;;;;;11.05;5.57;;;743.00;1638.40;;;;;;5072281;28;20502;-63
2022/06/17 10:24:10;;;;;;;7.78;5.88;;;742.60;1664.00;;;;;;4932312;29;20054;-63
2022/06/17 10:26:55;;;;;;;6.95;6.35;;;742.80;1638.40;;;;;;4930286;29;20036;-63
2022/06/17 10:30:01;;;;;;;6.68;5.78;;;743.00;1612.80;;;;;;4932662;29;20200;-64
2022/06/17 10:32:27;;;;;;;7.88;4.90;;;743.10;1638.40;;;;;;4933047;29;20144;-63
2022/06/17 10:34:58;;;;;;;6.45;5.25;;;743.20;1612.80;;;;;;4932666;29;20032;-63
2022/06/17 10:37:26;;;;;;;7.18;6.13;;;743.10;1638.40;;;;;;4932925;29;20028;-63
2022/06/17 10:39:53;;;;;;;5.65;4.88;;;743.00;1638.40;;;;;;4932555;29;20035;-63
2022/06/17 10:42:20;;;;;;;5.78;4.80;;;743.30;1638.40;;;;;;4932677;29;20146;-64
2022/06/17 10:44:50;;;;;;;5.80;5.18;;;768.20;1587.20;;;;;;4932715;29;20122;-63
2022/06/17 10:47:39;;;;;;;6.65;4.90;;;768.50;1587.20;;;;;;4932711;29;20087;-63
2022/06/17 10:50:27;;;;;;;7.03;5.90;;;768.20;1587.20;;;;;;4932517;29;20501;-63
2022/06/17 10:53:01;;;;;;;6.20;4.80;;;768.60;1587.20;;;;;;4932265;29;20036;-63
2022/06/17 10:55:36;;;;;;;6.15;5.55;;;768.20;1612.80;;;;;;4932456;29;20059;-62
2022/06/17 10:58:05;;;;;;;6.22;5.38;;;768.20;1561.60;;;;;;4942266;28;20115;-63
2022/06/17 11:00:32;;;;;;;8.25;6.25;;;768.40;1587.20;;;;;;5033570;28;20028;-63
2022/06/17 11:03:16;;;;;;;7.28;5.00;;;768.40;1587.20;;;;;;5071618;28;20033;-62
2022/06/17 11:05:42;;;;;;;5.25;4.75;;;768.60;1561.60;;;;;;5071422;28;20023;-63
2022/06/17 11:08:21;;;;;;;7.35;5.20;;;768.60;1587.20;;;;;;5071489;28;20029;-62
2022/06/17 11:10:54;;;;;;;8.35;5.82;;;768.50;1587.20;;;;;;5071575;28;20024;-64
2022/06/17 11:13:19;;;;;;;;;;;768.10;1587.20;;;;;;5071651;28;20028;-63
2022/06/17 11:15:50;;;;;;;5.57;4.85;;;768.10;1612.80;;;;;;5071222;28;20003;-63
2022/06/17 11:18:22;;;;;;;5.07;4.57;;;768.30;1587.20;;;;;;5071222;28;20032;-63
2022/06/17 11:21:03;;;;;;;4.82;4.32;;;768.30;1587.20;;;;;;5071199;28;20060;-63
2022/06/17 11:23:36;;;;;;;5.72;5.15;;;768.50;1536.00;;;;;;5070959;28;20029;-63
2022/06/17 11:26:18;;;;;;;14.65;5.60;;;768.50;1536.00;;;;;;5070934;28;20044;-63
2022/06/17 11:28:50;;;;;;;5.38;4.13;;;768.40;1536.00;;;;;;5071209;28;20040;-63
2022/06/17 11:31:25;;;;;;;5.03;4.47;;;768.40;1536.00;;;;;;5071162;28;20024;-63
2022/06/17 11:33:53;;;;;;;6.25;5.65;;;768.30;1536.00;;;;;;5071012;28;20376;-63
2022/06/17 11:36:27;;;;;;;10.60;5.30;;;768.30;1536.00;;;;;;5069785;28;20020;-63
2022/06/17 11:38:55;;;;;;;7.10;5.00;;;768.50;1536.00;;;;;;5070831;28;20028;-63
2022/06/17 11:41:30;;;;;;;4.82;4.32;;;768.70;1561.60;;;;;;5070652;28;20027;-63
2022/06/17 11:44:11;;;;;;;8.18;5.00;;;768.70;1561.60;;;;;;5070739;28;20056;-63
2022/06/17 11:46:49;;;;;;;5.80;5.07;;;768.80;1587.20;;;;;;5070861;28;20021;-63
2022/06/17 11:49:17;;;;;;;5.93;3.83;;;768.90;1536.00;;;;;;5070605;28;20036;-64
2022/06/17 11:52:02;;;;;;;6.03;5.05;;;793.60;1510.40;;;;;;5070535;28;20025;-63
2022/06/17 11:54:35;;;;;;;5.88;4.75;;;768.60;1510.40;;;;;;5070582;28;20024;-63
2022/06/17 11:57:17;;;;;;;6.70;5.43;;;768.90;1536.00;;;;;;5070226;28;20510;-63
2022/06/17 11:59:47;;;;;;;8.32;4.40;;;768.60;1510.40;;;;;;5070354;28;20491;-63
2022/06/17 12:02:14;;;;;;;5.78;4.80;;;768.70;1536.00;;;;;;5070519;28;20032;-63
2022/06/17 12:04:40;;;;;;;5.32;4.68;;;768.60;1536.00;;;;;;5070451;28;20028;-63
2022/06/17 12:07:43;;;;;;;7.35;3.90;;;768.90;1510.40;;;;;;5070505;28;20025;-63
2022/06/17 12:10:21;;;;;;;5.28;4.78;;;793.60;1510.40;;;;;;5069954;28;20036;-64
2022/06/17 12:12:49;;;;;;;5.53;4.38;;;793.80;1510.40;;;;;;5070412;28;20039;-63
2022/06/17 12:15:38;;;;;;;4.55;4.10;;;793.70;1510.40;;;;;;5070271;28;20031;-63
2022/06/17 12:18:06;;;;;;;5.55;3.85;;;768.60;1484.80;;;;;;5069466;28;20059;-63
2022/06/17 12:21:32;;;;;;;6.15;5.45;;;793.60;1484.80;;;;;;5069818;28;20032;-63
2022/06/17 12:24:03;;;;;;;5.28;4.40;;;768.70;1484.80;;;;;;4963850;28;20118;-63
2022/06/17 12:26:35;;;;;;;5.30;4.18;;;768.70;1510.40;;;;;;5069922;28;20067;-64
2022/06/17 12:29:31;;;;;;;6.00;4.38;;;768.90;1510.40;;;;;;5069814;28;20068;-63
2022/06/17 12:32:08;;;;;;;5.05;4.55;;;768.80;1510.40;;;;;;5069517;28;20033;-63
2022/06/17 12:34:47;;;;;;;5.95;5.30;;;793.70;1561.60;;;;;;5069923;28;20039;-63
2022/06/17 12:37:18;;;;;;;6.13;5.53;;;794.00;1561.60;;;;;;5069971;28;20024;-62
2022/06/17 12:40:01;;;;;;;5.88;5.30;;;794.10;1510.40;;;;;;5070318;28;20024;-62
2022/06/17 12:42:41;;;;;;;5.95;5.45;;;794.20;1561.60;;;;;;5070172;28;20494;-62
2022/06/17 12:45:22;;;;;;;6.15;4.60;;;794.10;1510.40;;;;;;5070256;28;20070;-62
2022/06/17 12:47:54;;;;;;;5.07;4.57;;;768.90;1536.00;;;;;;5070006;28;20467;-62
2022/06/17 12:54:02;;;;;;;5.40;4.38;;;743.10;1638.40;;;;;;5044510;28;20066;-61
2022/06/17 12:57:09;;;;;;;7.35;4.85;;;717.60;1715.20;;;;;;5070059;28;20032;-62
2022/06/17 13:00:00;;;;;;;7.05;5.18;;;717.30;1792.00;;;;;;5069260;28;20101;-62